createdAt,value
2022-09-03T00:47:52.325Z,0.93
2022-09-03T00:51:04.687Z,1.00
2022-09-03T00:54:02.626Z,1.00
2022-09-03T00:56:55.608Z,0.95
2022-09-03T00:59:52.714Z,1.00
2022-09-03T01:46:26.555Z,0.70
2022-09-03T01:49:24.056Z,0.75
2022-09-03T01:52:13.786Z,1.00
2022-09-03T01:55:10.576Z,0.80
2022-09-03T01:58:11.887Z,0.88
2022-09-03T02:46:53.214Z,0.70
2022-09-03T02:49:38.564Z,0.68
2022-09-03T02:52:23.846Z,0.80
2022-09-03T02:55:09.238Z,0.70
2022-09-03T02:57:54.131Z,0.93
2022-09-03T04:32:52.711Z,0.70
2022-09-03T04:35:38.158Z,0.70
2022-09-03T04:38:24.256Z,0.80
2022-09-03T04:41:14.057Z,0.73
2022-09-03T04:44:00.051Z,0.50
2022-09-03T04:46:47.831Z,0.70
2022-09-03T04:49:33.747Z,0.63
2022-09-03T04:52:19.585Z,0.80
2022-09-03T04:55:05.555Z,0.70
2022-09-03T04:57:50.803Z,0.60
2022-09-03T05:00:37.435Z,0.77
2022-09-03T05:03:22.916Z,0.70
2022-09-03T05:06:09.561Z,0.80
2022-09-03T05:08:55.797Z,0.70
2022-09-03T05:11:40.794Z,0.80
2022-09-03T05:14:25.824Z,0.73
2022-09-03T05:17:11.170Z,0.50
2022-09-03T05:19:56.150Z,0.65
2022-09-03T05:22:41.002Z,0.60
2022-09-03T05:25:26.019Z,0.88
2022-09-03T05:28:11.490Z,0.70
2022-09-03T05:31:01.720Z,0.70
2022-09-03T05:33:52.682Z,0.60
2022-09-03T05:36:38.534Z,0.60
2022-09-03T05:39:23.854Z,0.80
2022-09-03T05:42:08.977Z,0.52
2022-09-03T05:44:54.767Z,0.60
2022-09-03T05:47:40.117Z,0.73
2022-09-03T05:50:25.130Z,0.60
2022-09-03T05:53:10.029Z,0.75
2022-09-03T05:56:04.159Z,0.80
2022-09-03T05:58:52.440Z,0.80
2022-09-03T06:01:39.706Z,0.70
2022-09-03T06:04:24.863Z,0.70
2022-09-03T06:07:10.231Z,0.68
2022-09-03T06:09:55.671Z,0.52
2022-09-03T06:12:40.759Z,0.70
2022-09-03T06:15:26.110Z,0.70
2022-09-03T06:18:10.997Z,0.60
2022-09-03T06:20:57.696Z,0.55
2022-09-03T06:23:46.619Z,0.63
2022-09-03T06:26:31.895Z,0.60
2022-09-03T06:29:19.134Z,0.50
2022-09-03T06:32:04.949Z,0.60
2022-09-03T06:34:50.380Z,0.70
2022-09-03T06:37:42.997Z,0.60
2022-09-03T06:40:28.772Z,0.70
2022-09-03T06:43:13.815Z,0.60
2022-09-03T06:46:02.248Z,0.60
2022-09-03T06:48:47.809Z,0.70
2022-09-03T06:51:33.361Z,1.25
2022-09-03T06:54:18.710Z,1.20
2022-09-03T06:57:04.428Z,1.23
2022-09-03T06:59:49.616Z,1.70
2022-09-03T07:02:35.183Z,1.60
2022-09-03T07:05:20.887Z,1.50
2022-09-03T07:08:06.303Z,1.57
2022-09-03T07:10:51.504Z,1.83
2022-09-03T07:13:39.317Z,1.50
2022-09-03T07:16:27.742Z,1.75
2022-09-03T07:19:13.702Z,1.95
2022-09-03T07:21:59.964Z,1.43
2022-09-03T07:24:47.607Z,1.40
2022-09-03T07:27:35.379Z,1.60
2022-09-03T07:30:20.398Z,1.63
2022-09-03T07:33:07.301Z,1.50
2022-09-03T07:35:52.937Z,1.67
2022-09-03T07:38:38.307Z,1.50
2022-09-03T07:41:28.791Z,1.63
2022-09-03T07:44:20.170Z,1.40
2022-09-03T07:47:06.586Z,1.60
2022-09-03T07:49:51.702Z,1.37
2022-09-03T07:52:36.557Z,1.40
2022-09-03T07:55:21.996Z,1.42
2022-09-03T07:58:07.928Z,2.00
2022-09-03T08:00:56.912Z,1.50
2022-09-03T08:03:45.458Z,1.70
2022-09-03T08:06:32.583Z,1.40
2022-09-03T08:09:17.409Z,1.50
2022-09-03T08:12:05.669Z,1.70
2022-09-03T08:14:51.291Z,1.60
2022-09-03T08:17:36.328Z,1.50
2022-09-03T08:20:22.559Z,1.40
2022-09-03T08:23:07.741Z,1.50
2022-09-03T08:26:00.589Z,1.55
2022-09-03T08:28:46.011Z,1.50
2022-09-03T08:33:45.277Z,1.80
2022-09-03T08:36:31.800Z,1.98
2022-09-03T08:39:18.258Z,1.60
2022-09-03T08:42:21.684Z,1.92
2022-09-03T08:45:10.136Z,1.60
2022-09-03T08:48:04.905Z,1.90
2022-09-03T08:50:56.021Z,1.92
2022-09-03T08:53:48.065Z,1.52
2022-09-03T08:56:38.584Z,1.48
2022-09-03T08:59:27.083Z,1.60
2022-09-03T09:02:33.968Z,1.53
2022-09-03T09:05:27.078Z,1.33
2022-09-03T09:08:24.446Z,1.50
2022-09-03T09:11:40.838Z,1.50
2022-09-03T09:14:39.984Z,1.40
2022-09-03T09:17:43.780Z,1.43
2022-09-03T09:20:47.671Z,1.50
2022-09-03T09:23:40.423Z,1.35
2022-09-03T09:26:25.631Z,1.20
2022-09-03T09:29:12.898Z,1.30
2022-09-03T09:31:58.939Z,1.40
2022-09-03T09:34:47.490Z,1.40
2022-09-03T09:37:54.250Z,1.33
2022-09-03T09:40:45.044Z,1.30
2022-09-03T09:43:30.611Z,1.40
2022-09-03T09:46:21.446Z,1.33
2022-09-03T09:49:31.422Z,1.48
2022-09-03T09:52:17.777Z,1.30
2022-09-03T09:55:18.216Z,1.35
2022-09-03T09:58:13.592Z,1.35
2022-09-03T10:01:10.959Z,1.30
2022-09-03T10:04:07.804Z,1.17
2022-09-03T10:07:21.562Z,1.00
2022-09-03T10:10:11.187Z,1.40
2022-09-03T10:13:01.693Z,1.30
2022-09-03T10:15:54.761Z,1.00
2022-09-03T10:19:04.195Z,1.00
2022-09-03T10:22:03.097Z,1.00
2022-09-03T10:25:03.736Z,1.00
2022-09-03T10:27:50.737Z,1.20
2022-09-03T10:30:55.777Z,1.30
2022-09-03T10:34:21.912Z,1.00
2022-09-03T10:37:22.099Z,1.10
2022-09-03T10:40:20.899Z,1.10
2022-09-03T10:43:31.534Z,0.85
2022-09-03T10:46:24.373Z,1.23
2022-09-03T10:49:15.703Z,1.30
2022-09-03T10:52:25.749Z,1.00
2022-09-03T23:20:32.795Z,1.67
2022-09-03T23:23:37.411Z,2.00
2022-09-03T23:26:41.491Z,1.80
2022-09-03T23:29:30.031Z,1.73
2022-09-03T23:32:15.319Z,1.85
2022-09-03T23:35:02.221Z,2.37
2022-09-03T23:37:52.147Z,1.85
2022-09-03T23:40:40.841Z,1.77
2022-09-03T23:44:04.681Z,1.90
2022-09-03T23:46:59.520Z,2.15
2022-09-03T23:50:02.270Z,2.00
2022-09-03T23:53:12.781Z,1.73
2022-09-03T23:56:22.505Z,1.92
2022-09-03T23:59:20.244Z,2.30
